Unbenanntes Dokument
Flugplatz Bielefeld Platzwetter

 

Aktuelles Platzwetter am Flugplatz Bielefeld EDLI

17.07.19 ,10:35 Uhr

METAR EDLI 171035Z 25003KT 9999 ///031 17/14 Q1016

 

Windwerte

 

Wolkenuntergrenzen

Wind aktuell:280 ° mit 3 kt
Wind 10 min Extrem:
200 ° bis 310 ° mit 2 kt bis 6 kt
Seitenwindkomponente: 1.8 kt
Wolkengrenze 1: 3100 ft
Wolkengrenze 2:
Wolkengrenze 3:

Webcam

Temperatur

       

Sichtweite:

20.000 Meter

17.1 °C
Taupunkt: 14.1 °C
Luftfeuchtigkeit: 82 %

Luftdruck:

QNH: 1016 hPa (30.00 in Hg)
QFE: 999 hPa (29.50 in Hg)

Diese Daten werden automatisch ermittelt bzw. übertragen und sind nicht geprüft. Für die Richtigkeit wird daher keine Gewähr übernommen. Sie ersetzen im übrigen nicht die Flugwetterberatung. Alle Zeitangaben beziehen sich auf UTC. Die Seite wird einmal die Minute aktualisiert! Sollten Sie ein ältere Seite haben, so drücken Sie bitte auf den Reload Button Ihres Browsers!